Time;durP1;ratioP1;P1;durP2;ratioP2;P2;SDS_P1;SDS_P2;PMS_P1;PMS_P2;Temp;Humidity;BMP_temperature;BMP_pressure;BME280_temperature;BME280_humidity;BME280_pressure;Samples;Min_cycle;Max_cycle;Signal;HPM_P1;HPM_P2
2023/04/09 00:00:22;;;;;;;2.47;0.85;;;0.50;99.90;;;;;;4890663;29;20056;-62
2023/04/09 00:02:49;;;;;;;1.15;1.08;;;0.50;99.90;;;;;;4892421;29;20489;-65
2023/04/09 00:05:16;;;;;;;1.80;1.08;;;0.40;99.90;;;;;;4891792;29;20144;-62
2023/04/09 00:07:43;;;;;;;4.30;1.00;;;0.40;99.90;;;;;;4888256;29;20067;-62
2023/04/09 00:10:10;;;;;;;5.63;0.93;;;0.40;99.90;;;;;;4888929;29;20055;-64
2023/04/09 00:12:37;;;;;;;2.67;0.85;;;0.30;99.90;;;;;;4890000;29;20588;-61
2023/04/09 00:15:05;;;;;;;1.23;1.00;;;0.40;99.90;;;;;;4891567;29;20104;-66
2023/04/09 00:17:32;;;;;;;2.95;1.17;;;0.30;99.90;;;;;;4890736;29;20060;-63
2023/04/09 00:19:59;;;;;;;4.13;1.95;;;0.30;99.90;;;;;;4889287;29;20056;-64
2023/04/09 00:22:26;;;;;;;2.80;1.35;;;0.30;99.90;;;;;;4890555;29;20052;-63
2023/04/09 00:24:52;;;;;;;5.70;1.92;;;0.40;99.90;;;;;;4890908;29;20067;-61
2023/04/09 00:27:19;;;;;;;3.28;1.40;;;0.40;99.90;;;;;;4890378;29;20396;-63
2023/04/09 00:29:46;;;;;;;3.67;1.10;;;0.40;99.90;;;;;;4887252;29;20076;-62
2023/04/09 00:32:13;;;;;;;4.45;1.58;;;0.40;99.90;;;;;;4890836;29;20074;-62
2023/04/09 00:34:40;;;;;;;1.65;1.00;;;0.40;99.90;;;;;;4873552;29;20103;-63
2023/04/09 00:37:07;;;;;;;1.73;1.25;;;0.40;99.90;;;;;;4891546;29;20493;-62
2023/04/09 00:39:34;;;;;;;5.57;1.38;;;0.40;99.90;;;;;;4890181;29;20060;-61
2023/04/09 00:42:01;;;;;;;1.15;0.82;;;0.40;99.90;;;;;;4884758;29;20054;-62
2023/04/09 00:44:29;;;;;;;2.65;1.42;;;0.40;99.90;;;;;;4866535;29;20053;-62
2023/04/09 00:46:59;;;;;;;3.78;1.02;;;0.40;99.90;;;;;;4890737;29;20071;-63
2023/04/09 00:49:26;;;;;;;3.00;1.15;;;0.40;99.90;;;;;;4890785;29;20049;-62
2023/04/09 00:51:54;;;;;;;3.50;1.23;;;0.60;99.90;;;;;;4888605;29;20083;-61
2023/04/09 00:54:20;;;;;;;2.75;1.02;;;0.60;99.90;;;;;;4890816;29;20055;-62
2023/04/09 00:56:47;;;;;;;2.95;1.17;;;0.60;99.90;;;;;;4873425;29;20142;-63
2023/04/09 00:59:15;;;;;;;7.03;1.30;;;0.60;99.90;;;;;;4891384;29;20136;-61
2023/04/09 01:01:41;;;;;;;9.00;1.48;;;0.60;99.90;;;;;;4893041;29;20045;-63
2023/04/09 01:04:09;;;;;;;4.90;1.33;;;0.60;99.90;;;;;;4888757;29;20056;-62
2023/04/09 01:06:50;;;;;;;3.40;1.38;;;0.60;99.90;;;;;;4889559;29;20053;-61
2023/04/09 01:09:32;;;;;;;6.25;1.52;;;0.60;99.90;;;;;;4892074;29;20084;-63
2023/04/09 01:12:21;;;;;;;3.40;1.60;;;0.60;99.90;;;;;;4883946;29;20392;-61
2023/04/09 01:15:05;;;;;;;2.25;1.70;;;0.60;99.90;;;;;;4894703;29;20048;-62
2023/04/09 01:17:48;;;;;;;1.45;1.10;;;0.70;99.90;;;;;;4885866;29;20059;-63
2023/04/09 01:20:46;;;;;;;4.15;1.52;;;0.70;99.90;;;;;;4886906;29;20132;-62
2023/04/09 01:23:13;;;;;;;1.88;1.20;;;0.70;99.90;;;;;;4875384;29;20048;-61
2023/04/09 01:26:02;;;;;;;1.48;1.08;;;0.70;99.90;;;;;;4890521;29;20230;-63
2023/04/09 01:28:43;;;;;;;3.40;1.20;;;0.70;99.90;;;;;;4884594;29;20059;-62
2023/04/09 01:31:13;;;;;;;1.85;1.20;;;0.70;99.90;;;;;;4890656;29;20052;-63
2023/04/09 01:33:41;;;;;;;2.60;1.50;;;0.70;99.90;;;;;;4871637;29;20048;-63
2023/04/09 01:36:09;;;;;;;1.95;1.00;;;0.70;99.90;;;;;;4887933;29;20052;-62
2023/04/09 01:38:40;;;;;;;1.80;1.30;;;0.70;99.90;;;;;;4884527;29;20059;-64
2023/04/09 01:41:10;;;;;;;1.02;0.95;;;0.70;99.90;;;;;;4889885;29;20459;-62
2023/04/09 01:43:38;;;;;;;2.58;0.90;;;0.70;99.90;;;;;;4886371;29;20617;-63
2023/04/09 01:46:05;;;;;;;2.97;1.10;;;0.70;99.90;;;;;;4888228;29;20117;-65
2023/04/09 01:48:32;;;;;;;2.50;1.13;;;0.80;99.90;;;;;;4888358;29;20120;-63
2023/04/09 01:51:00;;;;;;;1.40;1.25;;;0.90;99.90;;;;;;4880372;29;20059;-62
2023/04/09 01:53:27;;;;;;;1.65;1.30;;;1.00;99.90;;;;;;4889356;29;20061;-64
2023/04/09 01:55:57;;;;;;;1.40;1.30;;;1.00;99.90;;;;;;4882800;29;20100;-63
2023/04/09 01:58:24;;;;;;;1.52;1.35;;;1.00;99.90;;;;;;4888456;29;20419;-63
2023/04/09 02:00:58;;;;;;;2.60;1.52;;;1.00;99.90;;;;;;4888598;29;20489;-64
2023/04/09 02:03:32;;;;;;;1.52;1.00;;;1.10;99.90;;;;;;4888297;29;20454;-62
2023/04/09 02:06:09;;;;;;;2.78;1.05;;;1.10;99.90;;;;;;4886214;29;20116;-64
2023/04/09 02:08:36;;;;;;;1.45;0.90;;;1.10;99.90;;;;;;4886225;29;20259;-62
2023/04/09 02:11:05;;;;;;;1.23;1.13;;;1.10;99.90;;;;;;4889491;29;20519;-67
2023/04/09 02:13:33;;;;;;;1.05;1.00;;;1.30;99.90;;;;;;4887747;29;20053;-65
2023/04/09 02:16:03;;;;;;;1.88;1.05;;;1.30;99.90;;;;;;4887278;29;20044;-63
2023/04/09 02:18:30;;;;;;;1.95;1.25;;;1.30;99.90;;;;;;4863850;29;20075;-66
2023/04/09 02:20:58;;;;;;;2.45;1.30;;;1.20;99.90;;;;;;4895826;29;20052;-62
2023/04/09 02:23:28;;;;;;;1.30;0.77;;;1.10;99.90;;;;;;4888881;29;20135;-62
2023/04/09 02:25:55;;;;;;;1.38;1.10;;;1.10;99.90;;;;;;4888186;29;20057;-63
2023/04/09 02:28:22;;;;;;;1.90;1.08;;;1.10;99.90;;;;;;4889821;29;20106;-63
2023/04/09 02:30:50;;;;;;;1.50;1.40;;;1.10;99.90;;;;;;4867869;29;20060;-66
2023/04/09 02:33:17;;;;;;;2.13;1.33;;;1.10;99.90;;;;;;4893931;29;20052;-63
2023/04/09 02:35:44;;;;;;;1.02;0.88;;;1.10;99.90;;;;;;4886918;29;20406;-61
2023/04/09 02:38:14;;;;;;;1.40;1.27;;;1.10;99.90;;;;;;4889183;29;20657;-62
2023/04/09 02:40:42;;;;;;;2.35;1.60;;;1.10;99.90;;;;;;4888830;29;20059;-64
2023/04/09 02:43:09;;;;;;;2.60;0.82;;;1.10;99.90;;;;;;4888542;29;20072;-62
2023/04/09 02:45:36;;;;;;;1.85;1.35;;;1.10;99.90;;;;;;4889244;29;20080;-61
2023/04/09 02:48:03;;;;;;;0.75;0.73;;;1.10;99.90;;;;;;4882410;29;22753;-63
2023/04/09 02:50:34;;;;;;;1.83;1.30;;;1.20;99.90;;;;;;4881888;29;20084;-63
2023/04/09 02:53:01;;;;;;;2.13;1.23;;;1.30;99.90;;;;;;4885924;29;20076;-61
2023/04/09 02:55:28;;;;;;;2.35;1.10;;;1.30;99.90;;;;;;4872109;29;20731;-62
2023/04/09 02:57:55;;;;;;;1.83;1.10;;;1.40;99.90;;;;;;4884420;29;20457;-62
2023/04/09 03:00:22;;;;;;;1.30;1.20;;;1.40;99.90;;;;;;4872107;29;20526;-66
2023/04/09 03:02:49;;;;;;;1.20;1.10;;;1.40;99.90;;;;;;4872038;29;20132;-62
2023/04/09 03:05:16;;;;;;;1.42;1.17;;;1.40;99.90;;;;;;4880705;29;20053;-62
2023/04/09 03:07:43;;;;;;;3.35;1.05;;;1.40;99.90;;;;;;4884650;29;20147;-62
2023/04/09 03:10:10;;;;;;;5.93;1.40;;;1.50;99.90;;;;;;4885196;29;20498;-62
2023/04/09 03:12:37;;;;;;;2.95;1.02;;;1.50;99.90;;;;;;4883200;29;20040;-62
2023/04/09 03:15:04;;;;;;;1.27;1.17;;;1.50;99.90;;;;;;4886698;29;20179;-62
2023/04/09 03:17:31;;;;;;;2.47;1.10;;;1.40;99.90;;;;;;4887500;29;20492;-65
2023/04/09 03:19:58;;;;;;;1.10;0.68;;;1.40;99.90;;;;;;4885623;29;20293;-61
2023/04/09 03:22:37;;;;;;;1.15;0.80;;;1.40;99.90;;;;;;4885264;29;20067;-62
2023/04/09 03:25:10;;;;;;;2.70;1.33;;;1.40;99.90;;;;;;4872247;29;20077;-64
2023/04/09 03:27:37;;;;;;;2.03;1.10;;;1.30;99.90;;;;;;4880216;29;20152;-63
2023/04/09 03:30:05;;;;;;;4.53;1.60;;;1.30;99.90;;;;;;4872292;29;20064;-64
2023/04/09 03:32:38;;;;;;;2.95;1.20;;;1.30;99.90;;;;;;4883493;29;20048;-65
2023/04/09 03:35:07;;;;;;;2.33;1.20;;;1.30;99.90;;;;;;4874320;29;20740;-62
2023/04/09 03:37:34;;;;;;;2.00;1.45;;;1.30;99.90;;;;;;4876363;29;20415;-62
2023/04/09 03:40:02;;;;;;;2.15;1.27;;;1.40;99.90;;;;;;4876179;29;20060;-62
2023/04/09 03:42:30;;;;;;;2.80;1.58;;;1.30;99.90;;;;;;4888757;29;20067;-60
2023/04/09 03:44:57;;;;;;;3.15;1.40;;;1.30;99.90;;;;;;4888636;29;20052;-63
2023/04/09 03:47:32;;;;;;;2.25;0.95;;;1.40;99.90;;;;;;4886661;29;20063;-61
2023/04/09 03:49:59;;;;;;;1.95;1.23;;;1.40;99.90;;;;;;4878970;29;20063;-62
2023/04/09 03:52:31;;;;;;;1.48;1.10;;;1.40;99.90;;;;;;4875485;29;20143;-62
2023/04/09 03:55:05;;;;;;;2.03;0.98;;;1.40;99.90;;;;;;4891930;29;20134;-61
2023/04/09 03:57:32;;;;;;;3.88;1.67;;;1.40;99.90;;;;;;4893358;29;20100;-62
2023/04/09 04:00:00;;;;;;;1.70;1.38;;;1.50;99.90;;;;;;4881197;29;20056;-63
2023/04/09 04:02:37;;;;;;;3.10;1.63;;;1.50;99.90;;;;;;4870788;29;20053;-65
2023/04/09 04:05:07;;;;;;;1.83;1.25;;;1.50;99.90;;;;;;4884718;29;20052;-60
2023/04/09 04:07:42;;;;;;;1.75;1.23;;;1.50;99.90;;;;;;4886619;29;20061;-64
2023/04/09 04:10:14;;;;;;;3.55;1.33;;;1.60;99.90;;;;;;4888355;29;20117;-62
2023/04/09 04:12:44;;;;;;;3.35;1.15;;;1.60;99.90;;;;;;4885693;29;20306;-61
2023/04/09 04:15:18;;;;;;;1.38;1.10;;;1.60;99.90;;;;;;4888244;29;20053;-61
2023/04/09 04:17:51;;;;;;;1.73;1.13;;;1.60;99.90;;;;;;4884669;29;20085;-61
2023/04/09 04:20:39;;;;;;;2.28;1.52;;;1.60;99.90;;;;;;4887493;29;20456;-61
2023/04/09 04:23:11;;;;;;;3.83;1.73;;;1.60;99.90;;;;;;4891920;29;20057;-61
2023/04/09 04:25:46;;;;;;;1.48;1.20;;;1.70;99.90;;;;;;4875224;29;20088;-61
2023/04/09 04:28:17;;;;;;;2.05;1.58;;;1.70;99.90;;;;;;4893591;29;20056;-64
2023/04/09 04:30:44;;;;;;;9.13;1.88;;;1.70;99.90;;;;;;4889295;29;21520;-63
2023/04/09 04:33:12;;;;;;;2.17;1.45;;;1.70;99.90;;;;;;4872211;29;20484;-61
2023/04/09 04:35:51;;;;;;;7.43;2.20;;;1.70;99.90;;;;;;4881799;29;20055;-62
2023/04/09 04:38:35;;;;;;;2.58;0.90;;;1.70;99.90;;;;;;4885761;29;20384;-63
2023/04/09 04:41:06;;;;;;;2.78;1.50;;;1.70;99.90;;;;;;4874968;29;20048;-63
2023/04/09 04:43:37;;;;;;;2.47;1.17;;;1.70;99.90;;;;;;4881070;29;20470;-64
2023/04/09 04:46:05;;;;;;;1.50;1.20;;;1.70;99.90;;;;;;4871683;29;20060;-63
2023/04/09 04:48:32;;;;;;;3.25;1.73;;;1.70;99.90;;;;;;4888548;29;20108;-64
2023/04/09 04:51:00;;;;;;;5.82;1.70;;;1.70;99.90;;;;;;4875779;29;20128;-66
2023/04/09 04:53:38;;;;;;;3.25;1.50;;;1.80;99.90;;;;;;4879921;29;20498;-63
2023/04/09 04:56:13;;;;;;;2.00;1.52;;;1.80;99.90;;;;;;4887514;29;20057;-62
2023/04/09 04:58:51;;;;;;;3.58;1.50;;;1.80;99.90;;;;;;4891702;29;20052;-63
2023/04/09 05:01:19;;;;;;;4.90;1.33;;;1.80;99.90;;;;;;4887842;29;20062;-64
2023/04/09 05:03:47;;;;;;;4.70;1.50;;;1.90;99.90;;;;;;4874334;29;20467;-63
2023/04/09 05:06:28;;;;;;;5.15;1.50;;;1.90;99.90;;;;;;4873778;29;20062;-65
2023/04/09 05:08:57;;;;;;;1.63;1.30;;;2.00;99.90;;;;;;4886407;29;20144;-62
2023/04/09 05:11:26;;;;;;;3.70;1.20;;;2.00;99.90;;;;;;4887607;29;20163;-63
2023/04/09 05:13:54;;;;;;;1.60;1.42;;;2.00;99.90;;;;;;4886819;29;20052;-61
2023/04/09 05:16:22;;;;;;;1.60;1.08;;;2.10;99.90;;;;;;4867008;29;20361;-62
2023/04/09 05:18:57;;;;;;;3.85;1.13;;;2.10;99.90;;;;;;4886674;29;20148;-63
2023/04/09 05:21:24;;;;;;;1.38;0.90;;;2.20;99.90;;;;;;4892668;29;20052;-62
2023/04/09 05:23:53;;;;;;;0.95;0.88;;;2.20;99.90;;;;;;4884323;29;20052;-62
2023/04/09 05:26:21;;;;;;;2.13;1.15;;;2.30;99.90;;;;;;4890051;29;20128;-64
2023/04/09 05:28:52;;;;;;;1.77;0.90;;;2.30;99.90;;;;;;4874321;29;20068;-63
2023/04/09 05:31:21;;;;;;;1.35;1.20;;;2.40;99.90;;;;;;4878160;29;20056;-66
2023/04/09 05:34:05;;;;;;;1.50;1.25;;;2.40;99.90;;;;;;4885643;29;20048;-61
2023/04/09 05:36:38;;;;;;;2.35;1.48;;;2.40;99.90;;;;;;4868856;29;20375;-62
2023/04/09 05:39:05;;;;;;;1.75;0.90;;;2.50;99.90;;;;;;4872150;29;20052;-63
2023/04/09 05:41:32;;;;;;;1.35;1.20;;;2.50;99.90;;;;;;4887701;29;20072;-62
2023/04/09 05:44:28;;;;;;;1.73;1.63;;;2.60;99.90;;;;;;4883931;29;20060;-64
2023/04/09 05:47:04;;;;;;;1.15;0.80;;;2.70;99.90;;;;;;4871635;29;20562;-65
2023/04/09 05:49:38;;;;;;;3.85;1.58;;;2.70;99.90;;;;;;4874284;29;20143;-66
2023/04/09 05:52:09;;;;;;;1.58;1.33;;;2.80;99.90;;;;;;4886070;29;20052;-62
2023/04/09 05:54:36;;;;;;;2.08;1.35;;;2.90;99.90;;;;;;4889211;29;20055;-62
2023/04/09 05:57:06;;;;;;;1.77;1.67;;;3.00;99.90;;;;;;4875185;29;20054;-61
2023/04/09 05:59:36;;;;;;;3.05;1.60;;;3.10;99.90;;;;;;4885842;29;20443;-65
2023/04/09 06:02:02;;;;;;;3.90;1.00;;;3.20;99.90;;;;;;4887699;29;20047;-62
2023/04/09 06:04:30;;;;;;;3.55;1.60;;;3.20;99.90;;;;;;4887672;29;20088;-63
2023/04/09 06:06:59;;;;;;;2.42;1.30;;;3.20;99.90;;;;;;4889278;29;20049;-62
2023/04/09 06:09:29;;;;;;;1.15;0.93;;;3.30;99.90;;;;;;4892586;29;20076;-62
2023/04/09 06:11:56;;;;;;;4.82;1.95;;;3.30;99.90;;;;;;4886520;29;20139;-61
2023/04/09 06:14:23;;;;;;;2.47;1.15;;;3.30;99.90;;;;;;4888454;29;20048;-64
2023/04/09 06:16:50;;;;;;;2.08;1.08;;;3.40;99.90;;;;;;4888447;29;20054;-63
2023/04/09 06:19:17;;;;;;;1.75;1.45;;;3.40;99.90;;;;;;4888515;29;22086;-61
2023/04/09 06:21:44;;;;;;;1.27;1.00;;;3.40;99.90;;;;;;4887917;29;20045;-63
2023/04/09 06:24:11;;;;;;;1.35;1.25;;;3.50;99.90;;;;;;4890758;29;20056;-64
2023/04/09 06:26:38;;;;;;;1.30;1.20;;;3.50;99.90;;;;;;4889133;29;20052;-63
2023/04/09 06:29:05;;;;;;;3.38;2.45;;;3.50;99.90;;;;;;4880552;29;20056;-62
2023/04/09 06:31:33;;;;;;;5.00;1.42;;;3.60;99.90;;;;;;4888545;29;20060;-63
2023/04/09 06:34:00;;;;;;;3.42;1.85;;;3.60;99.90;;;;;;4887855;29;20152;-61
2023/04/09 06:36:27;;;;;;;1.92;1.40;;;3.60;99.90;;;;;;4888387;29;20076;-63
2023/04/09 06:38:54;;;;;;;2.67;1.08;;;3.70;99.90;;;;;;4888367;29;20052;-63
2023/04/09 06:41:22;;;;;;;6.18;1.30;;;3.80;99.90;;;;;;4887945;29;20398;-62
2023/04/09 06:43:49;;;;;;;1.67;1.13;;;3.80;99.90;;;;;;4885391;29;20058;-62
2023/04/09 06:46:18;;;;;;;2.97;1.23;;;3.90;99.90;;;;;;4888989;29;20152;-66
2023/04/09 06:48:46;;;;;;;2.13;1.08;;;4.00;99.90;;;;;;4888104;29;20558;-62
2023/04/09 06:51:13;;;;;;;4.53;1.10;;;4.10;99.90;;;;;;4888146;29;20136;-64
2023/04/09 06:53:41;;;;;;;2.03;1.50;;;4.20;99.90;;;;;;4886796;29;20092;-61
2023/04/09 06:56:08;;;;;;;1.77;1.13;;;4.30;99.90;;;;;;4886703;29;20036;-64
2023/04/09 06:58:35;;;;;;;1.15;1.05;;;4.40;99.90;;;;;;4888197;29;20080;-61
2023/04/09 07:01:02;;;;;;;2.63;1.52;;;4.40;99.90;;;;;;4888286;29;20063;-67
2023/04/09 07:03:29;;;;;;;2.67;1.70;;;4.40;99.90;;;;;;4887241;29;20378;-67
2023/04/09 07:05:57;;;;;;;2.20;1.23;;;4.40;99.90;;;;;;4886261;29;20055;-63
2023/04/09 07:08:24;;;;;;;2.53;1.13;;;4.40;99.90;;;;;;4887436;29;20108;-63
2023/04/09 07:10:51;;;;;;;6.78;1.63;;;4.40;99.90;;;;;;4887686;29;20049;-64
2023/04/09 07:13:18;;;;;;;4.88;1.25;;;4.50;99.90;;;;;;4886264;29;20052;-65
2023/04/09 07:15:45;;;;;;;1.95;1.20;;;4.40;99.90;;;;;;4886604;29;20544;-67
2023/04/09 07:18:12;;;;;;;2.05;1.65;;;4.40;99.90;;;;;;4890898;29;20491;-63
2023/04/09 07:20:39;;;;;;;3.10;1.98;;;4.40;99.90;;;;;;4887867;29;20048;-63
2023/04/09 07:23:05;;;;;;;4.43;2.13;;;4.40;99.90;;;;;;4888636;29;20419;-61
2023/04/09 07:25:32;;;;;;;1.85;1.50;;;4.40;99.90;;;;;;4888108;29;20057;-63
2023/04/09 07:27:59;;;;;;;1.63;0.98;;;4.40;99.90;;;;;;4886535;29;20067;-63
2023/04/09 07:30:26;;;;;;;1.80;1.25;;;4.40;99.90;;;;;;4887683;29;20045;-66
2023/04/09 07:32:53;;;;;;;2.67;1.67;;;4.40;99.90;;;;;;4887301;29;20045;-63
2023/04/09 07:35:20;;;;;;;3.63;1.73;;;4.40;99.90;;;;;;4888527;29;20045;-63
2023/04/09 07:37:47;;;;;;;3.90;2.00;;;4.40;99.90;;;;;;4883214;29;20601;-63
2023/04/09 07:40:15;;;;;;;5.60;3.25;;;4.40;99.90;;;;;;4885489;29;20060;-64
2023/04/09 07:42:41;;;;;;;1.90;1.50;;;4.50;99.90;;;;;;4891580;29;20144;-61
2023/04/09 07:45:09;;;;;;;2.28;1.60;;;4.60;99.90;;;;;;4888084;29;20471;-67
2023/04/09 07:47:37;;;;;;;1.83;1.63;;;4.80;99.90;;;;;;4884273;29;20088;-62
2023/04/09 07:50:04;;;;;;;1.50;1.00;;;4.90;99.90;;;;;;4884820;29;20052;-62
2023/04/09 07:52:31;;;;;;;8.52;2.60;;;5.00;99.90;;;;;;4888389;29;20056;-62
2023/04/09 07:54:58;;;;;;;2.60;1.58;;;5.10;99.90;;;;;;4887882;29;20053;-63
2023/04/09 07:57:26;;;;;;;5.30;1.85;;;5.20;99.90;;;;;;4888146;29;20059;-61
2023/04/09 07:59:54;;;;;;;2.78;1.30;;;5.40;99.90;;;;;;4883817;29;20518;-62
2023/04/09 08:02:22;;;;;;;2.78;1.77;;;5.50;99.90;;;;;;4887839;29;20077;-65
2023/04/09 08:04:49;;;;;;;1.95;1.25;;;5.40;99.90;;;;;;4886707;29;20044;-63
2023/04/09 08:07:17;;;;;;;1.73;1.35;;;5.10;99.90;;;;;;4887020;29;20566;-67
2023/04/09 08:09:43;;;;;;;5.88;1.50;;;4.90;99.90;;;;;;4887803;29;20045;-64
2023/04/09 08:12:10;;;;;;;2.17;1.50;;;4.90;99.90;;;;;;4885755;29;20279;-65
2023/04/09 08:14:37;;;;;;;3.80;1.45;;;4.80;99.90;;;;;;4887322;29;20075;-67
2023/04/09 08:17:04;;;;;;;3.15;1.33;;;4.70;99.90;;;;;;4887468;29;20495;-63
2023/04/09 08:19:31;;;;;;;5.47;2.00;;;4.80;99.90;;;;;;4887592;29;20136;-62
2023/04/09 08:21:58;;;;;;;2.55;1.50;;;4.90;99.90;;;;;;4891240;29;20057;-63
2023/04/09 08:24:25;;;;;;;2.97;1.20;;;5.00;99.90;;;;;;4890421;29;20048;-65
2023/04/09 08:26:53;;;;;;;2.10;1.35;;;5.10;99.90;;;;;;4889839;29;20063;-62
2023/04/09 08:29:20;;;;;;;3.13;1.40;;;5.20;99.90;;;;;;4891398;29;20108;-66
2023/04/09 08:31:47;;;;;;;3.08;1.33;;;5.00;99.90;;;;;;4888903;29;20052;-65
2023/04/09 08:34:16;;;;;;;2.45;1.45;;;5.00;99.90;;;;;;4890509;29;20071;-63
2023/04/09 08:36:46;;;;;;;2.90;1.27;;;5.00;99.90;;;;;;4892143;29;20044;-64
2023/04/09 08:39:14;;;;;;;;;;;5.10;99.90;;;;;;4891773;29;20049;-63
2023/04/09 08:41:43;;;;;;;1.80;1.45;;;5.20;99.90;;;;;;4890667;29;20325;-64
2023/04/09 08:44:10;;;;;;;1.50;1.30;;;5.30;99.90;;;;;;4891704;29;20049;-63
2023/04/09 08:46:37;;;;;;;1.70;1.30;;;5.40;99.90;;;;;;4890009;29;20143;-63
2023/04/09 08:49:04;;;;;;;3.30;1.40;;;5.40;99.90;;;;;;4888014;29;20052;-64
2023/04/09 08:51:30;;;;;;;2.08;1.45;;;5.40;99.90;;;;;;4888924;29;20514;-63
2023/04/09 08:53:59;;;;;;;3.88;1.90;;;5.40;99.90;;;;;;4889763;29;20080;-70
2023/04/09 08:56:30;;;;;;;3.20;1.60;;;5.50;99.90;;;;;;4873016;29;20049;-61
2023/04/09 08:58:57;;;;;;;3.28;1.30;;;5.60;99.90;;;;;;4892664;29;20096;-62
2023/04/09 09:01:32;;;;;;;2.05;1.30;;;5.70;99.90;;;;;;4889367;29;20041;-63
2023/04/09 09:04:07;;;;;;;2.13;1.33;;;5.80;99.90;;;;;;4886682;29;20064;-62
2023/04/09 09:06:35;;;;;;;4.13;1.05;;;5.80;99.90;;;;;;4891074;29;20503;-62
2023/04/09 09:09:07;;;;;;;1.42;1.05;;;5.80;99.90;;;;;;4890362;29;20059;-63
2023/04/09 09:11:49;;;;;;;3.42;1.58;;;5.90;99.90;;;;;;4891164;29;20066;-63
2023/04/09 09:14:19;;;;;;;2.22;1.05;;;6.00;99.90;;;;;;4886505;29;20326;-64
2023/04/09 09:16:56;;;;;;;5.53;2.58;;;6.10;99.90;;;;;;4889314;29;20148;-63
2023/04/09 09:19:23;;;;;;;3.38;1.35;;;6.10;99.90;;;;;;4887526;29;20048;-61
2023/04/09 09:21:58;;;;;;;3.05;1.25;;;6.10;99.90;;;;;;4888283;29;20467;-62
2023/04/09 09:24:25;;;;;;;4.72;1.30;;;6.00;99.90;;;;;;4889110;29;20048;-63
2023/04/09 09:26:57;;;;;;;1.83;1.30;;;6.00;99.90;;;;;;4886706;29;20064;-63
2023/04/09 09:29:25;;;;;;;2.70;1.77;;;5.90;99.90;;;;;;4888782;29;20052;-62
2023/04/09 09:31:53;;;;;;;1.30;1.17;;;5.70;99.90;;;;;;4887109;29;20139;-64
2023/04/09 09:34:22;;;;;;;2.13;1.42;;;5.70;99.90;;;;;;4887569;29;20153;-63
2023/04/09 09:36:49;;;;;;;3.13;1.52;;;5.70;99.90;;;;;;4888649;29;20152;-66
2023/04/09 09:39:16;;;;;;;2.05;1.40;;;5.60;99.90;;;;;;4888330;29;20056;-62
2023/04/09 09:41:44;;;;;;;2.20;1.60;;;5.70;99.90;;;;;;4888709;29;20069;-63
2023/04/09 09:44:29;;;;;;;3.65;1.58;;;5.80;99.90;;;;;;4887491;29;20503;-64
2023/04/09 09:46:57;;;;;;;3.33;2.55;;;5.80;99.90;;;;;;4887399;29;20072;-64
2023/04/09 09:49:24;;;;;;;1.88;1.70;;;5.80;99.90;;;;;;4890353;29;20518;-64
2023/04/09 09:51:54;;;;;;;3.67;2.28;;;5.90;99.90;;;;;;4887287;29;20055;-64
2023/04/09 09:54:24;;;;;;;5.72;2.00;;;6.10;99.90;;;;;;4889442;29;20052;-66
2023/04/09 09:56:54;;;;;;;3.13;1.58;;;6.20;99.90;;;;;;4891581;29;20086;-62
2023/04/09 09:59:29;;;;;;;2.83;1.50;;;6.30;99.90;;;;;;4890198;29;20044;-65
2023/04/09 10:02:03;;;;;;;4.10;1.60;;;6.30;99.90;;;;;;4886255;29;20143;-62
2023/04/09 10:04:36;;;;;;;4.95;2.25;;;6.30;99.90;;;;;;4885742;29;20788;-62
2023/04/09 10:07:05;;;;;;;5.65;1.45;;;6.30;99.90;;;;;;4887479;29;20388;-63
2023/04/09 10:09:38;;;;;;;2.20;1.50;;;6.30;99.90;;;;;;4888800;29;20057;-65
2023/04/09 10:12:07;;;;;;;3.00;1.60;;;6.30;99.90;;;;;;4887390;29;20117;-61
2023/04/09 10:14:35;;;;;;;3.88;1.88;;;6.10;99.90;;;;;;4888810;29;20499;-62
2023/04/09 10:17:03;;;;;;;2.28;1.65;;;5.80;99.90;;;;;;4891680;29;20070;-62
2023/04/09 10:19:32;;;;;;;9.35;2.00;;;5.80;99.90;;;;;;4891092;29;20048;-64
2023/04/09 10:22:08;;;;;;;2.67;1.65;;;5.80;99.90;;;;;;4889020;29;20143;-62
2023/04/09 10:24:35;;;;;;;3.60;1.90;;;6.00;99.90;;;;;;4889012;29;20080;-62
2023/04/09 10:27:14;;;;;;;2.80;1.70;;;6.00;99.90;;;;;;4888912;29;20147;-62
2023/04/09 10:29:47;;;;;;;1.90;1.80;;;5.90;99.90;;;;;;4888247;29;20060;-62
2023/04/09 10:32:27;;;;;;;2.75;1.92;;;5.90;99.90;;;;;;4871475;29;20064;-61
2023/04/09 10:34:58;;;;;;;3.58;1.92;;;5.80;99.90;;;;;;4889253;29;20196;-61
2023/04/09 10:37:26;;;;;;;3.63;2.38;;;5.70;99.90;;;;;;4887464;29;20452;-61
2023/04/09 10:39:53;;;;;;;4.40;3.05;;;5.70;99.90;;;;;;4887264;29;20048;-63
2023/04/09 10:42:34;;;;;;;7.53;2.40;;;5.90;99.90;;;;;;4888015;29;20049;-63
2023/04/09 10:45:13;;;;;;;4.47;2.20;;;5.80;99.90;;;;;;4885879;29;20048;-61
2023/04/09 10:47:42;;;;;;;7.88;2.75;;;5.90;99.90;;;;;;4888849;29;20104;-63
2023/04/09 10:50:20;;;;;;;2.85;2.50;;;6.00;99.90;;;;;;4886588;29;20502;-62
2023/04/09 10:52:52;;;;;;;4.40;2.58;;;6.10;99.90;;;;;;4888516;29;20129;-62
2023/04/09 10:55:40;;;;;;;4.30;2.75;;;5.80;99.90;;;;;;4887891;29;20446;-65
2023/04/09 10:58:11;;;;;;;6.43;2.72;;;5.70;99.90;;;;;;4884848;29;20060;-60
2023/04/09 11:00:44;;;;;;;3.22;2.47;;;5.80;99.90;;;;;;4889113;29;20145;-61
2023/04/09 11:03:14;;;;;;;6.20;4.63;;;5.80;99.90;;;;;;4887202;29;20064;-62
2023/04/09 11:05:43;;;;;;;6.22;2.05;;;5.90;99.90;;;;;;4885553;29;20141;-61
2023/04/09 11:08:11;;;;;;;4.45;2.58;;;5.80;99.90;;;;;;4879826;29;20064;-61
2023/04/09 11:10:40;;;;;;;6.38;4.25;;;5.80;99.90;;;;;;4882992;29;20139;-62
2023/04/09 11:13:12;;;;;;;4.80;3.30;;;5.80;99.90;;;;;;4886176;29;20052;-64
2023/04/09 11:15:40;;;;;;;6.63;3.03;;;5.90;99.90;;;;;;4887628;29;20048;-65
2023/04/09 11:18:08;;;;;;;4.28;3.35;;;5.90;99.90;;;;;;4885440;29;20049;-61
2023/04/09 11:20:35;;;;;;;3.40;3.10;;;5.90;99.90;;;;;;4883786;29;20411;-60
2023/04/09 11:23:02;;;;;;;3.28;2.65;;;5.90;99.90;;;;;;4887588;29;20044;-65
2023/04/09 11:25:31;;;;;;;4.45;2.88;;;5.90;99.90;;;;;;4886204;29;20101;-61
2023/04/09 11:28:01;;;;;;;3.63;2.60;;;5.90;99.90;;;;;;4886190;29;20061;-61
2023/04/09 11:30:28;;;;;;;6.90;3.78;;;6.00;99.90;;;;;;4888256;29;20051;-65
2023/04/09 11:32:55;;;;;;;5.90;3.45;;;6.00;99.90;;;;;;4888229;29;20058;-62
2023/04/09 11:35:22;;;;;;;5.68;3.00;;;6.10;99.90;;;;;;4886353;29;20057;-63
2023/04/09 11:37:51;;;;;;;5.00;3.63;;;6.00;99.90;;;;;;4886968;29;20048;-61
2023/04/09 11:40:19;;;;;;;3.85;3.17;;;6.00;99.90;;;;;;4887501;29;20060;-61
2023/04/09 11:42:48;;;;;;;3.45;3.08;;;6.10;99.90;;;;;;4886552;29;20076;-62
2023/04/09 11:45:16;;;;;;;2.55;2.35;;;6.20;99.90;;;;;;4886824;29;20055;-65
2023/04/09 11:47:45;;;;;;;6.05;3.38;;;6.30;99.90;;;;;;4886335;29;20503;-62
2023/04/09 11:50:14;;;;;;;4.35;3.13;;;6.40;99.90;;;;;;4886632;29;20075;-62
2023/04/09 11:52:42;;;;;;;5.28;3.85;;;6.40;99.90;;;;;;4884680;29;20507;-64
2023/04/09 11:55:09;;;;;;;8.77;4.40;;;6.40;99.90;;;;;;4884383;29;20135;-62
2023/04/09 11:57:41;;;;;;;3.10;2.85;;;6.40;99.90;;;;;;4892223;29;20052;-64
2023/04/09 12:00:19;;;;;;;3.67;2.78;;;6.40;99.90;;;;;;4886085;29;20121;-63
2023/04/09 12:02:50;;;;;;;5.32;3.50;;;6.30;99.90;;;;;;4890876;29;20456;-63
2023/04/09 12:05:22;;;;;;;3.13;2.58;;;6.40;99.90;;;;;;4888387;29;20079;-61
2023/04/09 12:07:50;;;;;;;7.97;2.90;;;6.60;99.90;;;;;;4889095;29;20088;-62
2023/04/09 12:10:26;;;;;;;4.43;3.63;;;6.70;99.90;;;;;;4888695;29;20056;-62
2023/04/09 12:12:54;;;;;;;7.13;4.20;;;6.50;99.90;;;;;;4893627;29;20184;-62
2023/04/09 12:15:23;;;;;;;3.00;2.78;;;6.40;99.90;;;;;;4893952;29;20055;-62
2023/04/09 12:17:54;;;;;;;5.38;3.42;;;6.50;99.90;;;;;;4890289;29;20056;-64
2023/04/09 12:20:45;;;;;;;5.03;2.90;;;6.50;99.90;;;;;;4890525;29;20053;-63
2023/04/09 12:23:13;;;;;;;7.78;3.17;;;6.60;99.90;;;;;;4887208;29;20763;-63
2023/04/09 12:25:42;;;;;;;6.22;3.22;;;6.70;99.90;;;;;;4891401;29;20051;-61
2023/04/09 12:28:12;;;;;;;7.45;4.40;;;6.80;99.90;;;;;;4889150;29;20053;-62
2023/04/09 12:30:39;;;;;;;;;;;6.80;99.90;;;;;;4891792;29;20060;-62
2023/04/09 12:33:06;;;;;;;6.35;3.55;;;6.90;99.90;;;;;;4891090;29;20022;-62
2023/04/09 12:35:36;;;;;;;3.20;2.83;;;6.90;99.90;;;;;;4889926;29;20051;-62
2023/04/09 12:38:04;;;;;;;3.92;2.95;;;6.90;99.90;;;;;;4886832;29;20331;-62
2023/04/09 12:40:31;;;;;;;3.50;3.20;;;6.90;99.90;;;;;;4891388;29;20131;-62
2023/04/09 12:42:58;;;;;;;4.70;3.08;;;7.00;99.90;;;;;;4891049;29;20052;-62
2023/04/09 12:45:25;;;;;;;2.97;2.35;;;7.20;99.90;;;;;;4892067;29;20058;-63
2023/04/09 12:47:52;;;;;;;4.40;2.78;;;7.40;99.90;;;;;;4885744;29;20498;-61
2023/04/09 12:50:19;;;;;;;3.78;2.00;;;7.70;99.90;;;;;;4890083;29;20075;-63
2023/04/09 12:52:46;;;;;;;2.97;1.50;;;7.80;99.90;;;;;;4889035;29;20056;-62
2023/04/09 12:55:13;;;;;;;4.85;1.90;;;8.00;99.90;;;;;;4890816;29;20053;-61
2023/04/09 12:57:45;;;;;;;3.38;1.75;;;8.10;99.90;;;;;;4890500;29;20148;-61
2023/04/09 13:00:13;;;;;;;5.20;2.65;;;8.20;99.90;;;;;;4871787;29;20059;-63
2023/04/09 13:02:40;;;;;;;4.47;2.20;;;8.20;99.90;;;;;;4877902;29;20080;-61
2023/04/09 13:05:08;;;;;;;4.22;2.97;;;8.30;99.90;;;;;;4890784;29;20053;-65
2023/04/09 13:07:35;;;;;;;2.63;2.03;;;8.30;99.90;;;;;;4891315;29;20059;-62
2023/04/09 13:10:02;;;;;;;4.32;2.75;;;8.30;99.90;;;;;;4888691;29;20754;-65